createdAt,value
2022-08-29T00:00:50.566Z,1.70
2022-08-29T00:03:18.748Z,1.60
2022-08-29T00:05:50.046Z,1.55
2022-08-29T00:08:18.562Z,2.20
2022-08-29T00:11:47.883Z,1.80
2022-08-29T00:14:20.860Z,1.60
2022-08-29T00:16:51.124Z,1.70
2022-08-29T00:19:19.081Z,1.73
2022-08-29T00:21:46.792Z,1.70
2022-08-29T00:24:16.115Z,1.70
2022-08-29T00:26:44.858Z,1.73
2022-08-29T00:29:12.800Z,2.10
2022-08-29T00:31:42.235Z,2.03
2022-08-29T00:34:10.103Z,2.13
2022-08-29T00:36:40.143Z,1.80
2022-08-29T00:39:09.189Z,2.15
2022-08-29T00:41:39.028Z,2.05
2022-08-29T00:44:07.111Z,2.03
2022-08-29T00:46:47.476Z,1.97
2022-08-29T00:49:24.505Z,1.90
2022-08-29T00:51:52.618Z,2.00
2022-08-29T00:54:20.671Z,1.92
2022-08-29T00:56:48.581Z,2.28
2022-08-29T00:59:18.963Z,2.30
2022-08-29T01:01:48.253Z,2.22
2022-08-29T01:04:24.332Z,2.50
2022-08-29T01:06:53.054Z,2.33
2022-08-29T01:09:21.413Z,2.40
2022-08-29T01:12:06.962Z,2.50
2022-08-29T01:14:38.567Z,2.35
2022-08-29T01:17:09.364Z,2.77
2022-08-29T01:19:42.978Z,2.83
2022-08-29T01:22:29.546Z,2.95
2022-08-29T01:25:00.583Z,3.13
2022-08-29T01:27:31.708Z,3.20
2022-08-29T01:29:59.751Z,2.78
2022-08-29T01:32:27.971Z,3.20
2022-08-29T01:34:56.935Z,3.00
2022-08-29T01:37:26.481Z,2.70
2022-08-29T01:39:54.310Z,3.17
2022-08-29T01:42:24.831Z,2.95
2022-08-29T01:44:55.350Z,3.20
2022-08-29T01:47:27.779Z,2.53
2022-08-29T01:49:55.845Z,3.17
2022-08-29T01:56:10.858Z,2.90
2022-08-29T01:58:42.173Z,3.15
2022-08-29T02:01:10.788Z,3.00
2022-08-29T02:03:40.626Z,2.92
2022-08-29T02:06:10.147Z,2.70
2022-08-29T02:08:38.524Z,2.90
2022-08-29T02:11:10.173Z,3.58
2022-08-29T02:13:38.176Z,3.08
2022-08-29T02:16:10.432Z,3.53
2022-08-29T02:18:38.677Z,3.30
2022-08-29T02:21:06.720Z,3.28
2022-08-29T02:23:36.206Z,2.70
2022-08-29T02:26:05.200Z,2.90
2022-08-29T02:28:33.754Z,3.07
2022-08-29T02:31:01.821Z,3.20
2022-08-29T02:33:31.358Z,3.85
2022-08-29T02:36:00.296Z,2.90
2022-08-29T02:38:31.582Z,2.85
2022-08-29T02:40:59.579Z,2.92
2022-08-29T02:43:28.438Z,2.80
2022-08-29T02:45:56.415Z,3.00
2022-08-29T02:48:24.422Z,2.58
2022-08-29T02:50:55.336Z,2.78
2022-08-29T02:53:25.333Z,2.95
2022-08-29T02:55:53.385Z,3.30
2022-08-29T02:58:21.710Z,2.90
2022-08-29T03:00:50.412Z,2.90
2022-08-29T03:03:19.395Z,2.88
2022-08-29T03:05:48.067Z,3.33
2022-08-29T03:08:18.859Z,3.90
2022-08-29T03:10:47.062Z,4.00
2022-08-29T03:13:14.942Z,3.97
2022-08-29T03:15:43.617Z,3.40
2022-08-29T03:18:12.059Z,3.53
2022-08-29T03:20:40.226Z,3.47
2022-08-29T03:23:08.322Z,4.03
2022-08-29T03:25:38.640Z,5.30
2022-08-29T03:28:06.598Z,5.10
2022-08-29T03:30:34.475Z,5.22
2022-08-29T03:33:02.600Z,5.35
2022-08-29T03:35:30.330Z,6.00
2022-08-29T03:37:58.414Z,5.50
2022-08-29T03:40:26.920Z,5.88
2022-08-29T03:42:56.628Z,5.03
2022-08-29T03:45:25.763Z,5.28
2022-08-29T03:47:54.051Z,4.95
2022-08-29T03:50:22.496Z,5.30
2022-08-29T03:52:50.292Z,4.95
2022-08-29T03:55:20.267Z,5.38
2022-08-29T03:57:48.763Z,4.77
2022-08-29T04:00:19.927Z,5.03
2022-08-29T04:02:49.328Z,4.78
2022-08-29T04:05:18.938Z,4.88
2022-08-29T04:07:50.329Z,4.70
2022-08-29T04:10:22.002Z,4.57
2022-08-29T04:12:54.469Z,5.30
2022-08-29T04:15:25.846Z,4.65
2022-08-29T04:17:55.252Z,4.68
2022-08-29T04:20:25.895Z,4.93
2022-08-29T04:22:54.546Z,4.80
2022-08-29T04:25:25.163Z,4.93
2022-08-29T04:27:53.441Z,5.43
2022-08-29T04:30:25.056Z,5.68
2022-08-29T04:32:53.472Z,5.60
2022-08-29T04:35:21.960Z,5.83
2022-08-29T04:37:50.038Z,5.53
2022-08-29T04:40:19.876Z,6.27
2022-08-29T04:42:48.522Z,5.65
2022-08-29T04:45:18.934Z,4.75
2022-08-29T04:47:48.184Z,5.43
2022-08-29T04:50:19.558Z,4.70
2022-08-29T04:52:48.660Z,4.45
2022-08-29T04:55:21.548Z,4.60
2022-08-29T04:57:51.544Z,4.87
2022-08-29T05:00:22.454Z,4.57
2022-08-29T05:02:51.905Z,4.70
2022-08-29T05:05:19.963Z,4.50
2022-08-29T05:07:48.849Z,4.32
2022-08-29T05:10:20.030Z,4.13
2022-08-29T05:13:49.295Z,4.47
2022-08-29T05:16:18.892Z,5.30
2022-08-29T05:18:48.639Z,5.00
2022-08-29T05:21:25.833Z,4.60
2022-08-29T05:23:54.566Z,4.60
2022-08-29T05:26:22.721Z,3.75
2022-08-29T05:28:51.805Z,4.30
2022-08-29T05:31:21.145Z,4.78
2022-08-29T05:33:50.712Z,4.15
2022-08-29T05:36:18.812Z,4.57
2022-08-29T05:38:46.713Z,4.22
2022-08-29T05:41:15.676Z,4.70
2022-08-29T05:43:43.577Z,3.55
2022-08-29T05:46:12.527Z,3.25
2022-08-29T05:48:42.359Z,3.70
2022-08-29T05:51:18.064Z,4.05
2022-08-29T05:53:46.628Z,4.25
2022-08-29T05:56:22.001Z,3.53
2022-08-29T05:58:50.220Z,3.35
2022-08-29T06:01:23.713Z,3.70
2022-08-29T06:03:54.656Z,3.53
2022-08-29T06:06:27.996Z,3.38
2022-08-29T06:08:57.241Z,2.85
2022-08-29T06:11:26.539Z,3.77
2022-08-29T06:13:54.665Z,3.47
2022-08-29T06:16:24.253Z,3.00
2022-08-29T06:18:54.586Z,3.13
2022-08-29T06:21:22.919Z,3.00
2022-08-29T06:23:52.312Z,3.10
2022-08-29T06:26:20.968Z,2.95
2022-08-29T06:28:49.375Z,2.35
2022-08-29T06:31:20.710Z,2.10
2022-08-29T06:33:49.045Z,2.85
2022-08-29T06:36:18.810Z,2.40
2022-08-29T06:38:48.235Z,2.50
2022-08-29T06:41:18.750Z,2.58
2022-08-29T06:43:46.942Z,2.72
2022-08-29T06:46:23.619Z,2.63
2022-08-29T06:48:52.115Z,2.42
2022-08-29T06:51:20.053Z,2.30
2022-08-29T06:53:48.513Z,2.50
2022-08-29T06:56:18.987Z,2.30
2022-08-29T06:58:46.903Z,2.17
2022-08-29T07:01:16.745Z,2.33
2022-08-29T07:03:44.753Z,2.20
2022-08-29T07:06:13.177Z,2.17
2022-08-29T07:08:46.743Z,2.42
2022-08-29T07:11:25.366Z,2.57
2022-08-29T07:13:53.076Z,2.00
2022-08-29T07:16:21.015Z,2.65
2022-08-29T07:18:52.178Z,2.40
2022-08-29T07:21:21.641Z,2.20
2022-08-29T07:23:50.001Z,2.40
2022-08-29T07:26:19.466Z,2.30
2022-08-29T07:28:49.648Z,2.70
2022-08-29T07:31:17.577Z,2.30
2022-08-29T07:33:45.662Z,2.13
2022-08-29T07:36:13.631Z,2.40
2022-08-29T07:38:41.626Z,2.58
2022-08-29T07:41:12.094Z,2.60
2022-08-29T07:43:41.132Z,2.28
2022-08-29T07:46:11.956Z,2.60
2022-08-29T07:48:40.402Z,2.85
2022-08-29T07:51:10.639Z,2.50
2022-08-29T07:53:38.796Z,2.28
2022-08-29T07:56:08.189Z,2.65
2022-08-29T07:59:37.435Z,3.15
2022-08-29T08:02:08.803Z,2.20
2022-08-29T08:04:36.652Z,2.42
2022-08-29T08:07:04.843Z,2.30
2022-08-29T08:09:41.352Z,1.88
2022-08-29T08:12:09.903Z,1.90
2022-08-29T08:14:38.185Z,2.22
2022-08-29T08:17:07.570Z,2.10
2022-08-29T08:19:36.395Z,2.13
2022-08-29T08:22:04.056Z,2.33
2022-08-29T08:24:33.891Z,2.38
2022-08-29T08:27:02.031Z,2.22
2022-08-29T08:29:29.944Z,2.03
2022-08-29T08:32:00.096Z,2.47
2022-08-29T08:34:30.422Z,2.00
2022-08-29T08:36:58.318Z,1.92
2022-08-29T08:39:26.080Z,2.05
2022-08-29T08:41:57.135Z,2.13
2022-08-29T08:44:55.734Z,2.28
2022-08-29T08:47:27.041Z,1.98
2022-08-29T08:50:02.778Z,2.05
2022-08-29T08:52:35.802Z,2.13
2022-08-29T08:55:06.769Z,2.25
2022-08-29T08:57:39.715Z,2.25
2022-08-29T09:00:10.908Z,1.90
2022-08-29T09:02:47.532Z,1.60
2022-08-29T09:05:30.044Z,1.95
2022-08-29T09:08:02.779Z,2.22
2022-08-29T09:10:39.113Z,2.13
2022-08-29T09:13:13.773Z,2.42
2022-08-29T09:15:44.694Z,2.57
2022-08-29T09:18:23.807Z,1.83
2022-08-29T09:20:54.240Z,1.80
2022-08-29T09:23:28.394Z,1.75
2022-08-29T09:25:56.821Z,2.30
2022-08-29T09:28:24.805Z,1.88
2022-08-29T09:31:16.454Z,2.20
2022-08-29T09:33:46.815Z,1.83
2022-08-29T09:36:47.913Z,2.13
2022-08-29T09:39:24.386Z,1.92
2022-08-29T09:41:54.465Z,2.13
2022-08-29T09:44:26.834Z,2.20
2022-08-29T09:47:15.884Z,1.63
2022-08-29T09:50:03.370Z,2.25
2022-08-29T09:52:32.968Z,1.73
2022-08-29T09:55:19.665Z,1.52
2022-08-29T09:57:52.351Z,1.73
2022-08-29T10:00:27.713Z,1.70
2022-08-29T10:02:57.811Z,1.80
2022-08-29T10:05:38.141Z,1.80
2022-08-29T10:08:26.547Z,1.60
2022-08-29T10:10:57.010Z,1.40
2022-08-29T10:13:31.876Z,1.67
2022-08-29T10:16:08.835Z,1.47
2022-08-29T10:18:45.201Z,1.38
2022-08-29T10:21:20.503Z,1.50
2022-08-29T10:24:00.850Z,1.90
2022-08-29T10:26:36.106Z,1.87
2022-08-29T10:29:14.038Z,1.60
2022-08-29T10:31:49.547Z,1.58
2022-08-29T10:34:31.263Z,1.55
2022-08-29T10:37:03.221Z,1.48
2022-08-29T10:39:40.762Z,1.60
2022-08-29T10:42:11.008Z,1.52
2022-08-29T10:44:50.980Z,2.13
2022-08-29T10:47:27.305Z,1.63
2022-08-29T10:50:10.189Z,1.58
2022-08-29T10:52:51.131Z,1.58
2022-08-29T10:55:24.441Z,1.70
2022-08-29T10:58:01.670Z,1.50
2022-08-29T11:00:34.257Z,1.38
2022-08-29T11:03:08.338Z,1.25
2022-08-29T11:05:42.255Z,1.45
2022-08-29T11:08:16.157Z,1.38
2022-08-29T11:10:52.061Z,1.60
2022-08-29T11:13:23.298Z,1.40
2022-08-29T11:15:59.467Z,1.33
2022-08-29T11:18:31.354Z,1.70
2022-08-29T11:21:01.718Z,1.58
2022-08-29T11:23:35.656Z,1.40
2022-08-29T11:26:09.904Z,1.65
2022-08-29T11:31:13.901Z,1.55
2022-08-29T11:33:47.835Z,1.42
2022-08-29T11:36:33.452Z,1.40
2022-08-29T11:39:19.450Z,1.58
2022-08-29T11:41:50.250Z,1.48
2022-08-29T11:44:25.530Z,1.45
2022-08-29T11:46:56.950Z,1.30
2022-08-29T11:49:29.771Z,1.20
2022-08-29T11:52:00.399Z,1.70
2022-08-29T11:55:10.891Z,1.70
2022-08-29T11:57:51.479Z,1.27
2022-08-29T12:00:53.886Z,1.30
2022-08-29T12:03:46.209Z,1.30
2022-08-29T12:06:23.181Z,1.70
2022-08-29T12:09:00.675Z,1.58
2022-08-29T12:12:22.949Z,1.45
2022-08-29T12:14:53.254Z,1.70
2022-08-29T12:18:01.469Z,1.80
2022-08-29T12:20:40.830Z,1.33
2022-08-29T12:23:20.089Z,1.30
2022-08-29T12:26:03.714Z,1.60
2022-08-29T12:28:48.889Z,1.50
2022-08-29T12:31:39.095Z,1.45
2022-08-29T12:34:29.983Z,1.67
2022-08-29T12:37:20.117Z,1.67
2022-08-29T12:40:29.839Z,1.23
2022-08-29T12:43:19.006Z,1.13
2022-08-29T12:45:48.476Z,1.30
2022-08-29T12:48:22.960Z,1.38
2022-08-29T12:50:50.847Z,1.40
2022-08-29T12:53:20.588Z,1.30
2022-08-29T12:55:52.373Z,1.27
2022-08-29T12:58:35.588Z,1.60
2022-08-29T13:01:03.651Z,1.20
2022-08-29T13:03:33.366Z,1.60
2022-08-29T13:06:06.416Z,1.88
2022-08-29T13:08:38.308Z,1.43
2022-08-29T13:11:09.436Z,1.30
2022-08-29T13:13:37.955Z,1.40
2022-08-29T13:16:08.656Z,1.20
2022-08-29T13:19:00.127Z,1.30
2022-08-29T13:21:31.672Z,1.20
2022-08-29T13:24:05.895Z,1.10
2022-08-29T13:26:35.048Z,1.08
2022-08-29T13:29:17.873Z,1.30
2022-08-29T13:31:45.822Z,1.27
2022-08-29T13:34:22.150Z,1.40
2022-08-29T13:37:02.455Z,1.35
2022-08-29T13:39:41.175Z,1.20
2022-08-29T13:42:18.502Z,1.20
2022-08-29T13:45:09.635Z,1.30
2022-08-29T13:47:53.444Z,1.10
2022-08-29T13:50:23.484Z,1.38
2022-08-29T13:52:52.555Z,1.27
2022-08-29T13:55:21.059Z,1.27
2022-08-29T13:57:51.329Z,1.40
2022-08-29T14:00:32.041Z,1.05
2022-08-29T14:03:04.197Z,1.07
2022-08-29T14:05:35.352Z,1.10
2022-08-29T14:08:03.679Z,1.30
2022-08-29T14:11:35.556Z,1.27
2022-08-29T14:14:03.171Z,1.10
2022-08-29T14:16:30.989Z,1.17
2022-08-29T14:18:58.937Z,1.08
2022-08-29T14:21:28.636Z,1.17
2022-08-29T14:23:56.443Z,1.17
2022-08-29T14:26:25.525Z,1.20
2022-08-29T14:28:53.362Z,1.13
2022-08-29T14:31:21.233Z,1.20
2022-08-29T14:33:51.639Z,1.40
2022-08-29T14:36:20.898Z,1.23
2022-08-29T14:38:56.686Z,1.33
2022-08-29T14:41:25.656Z,1.02
2022-08-29T14:43:54.106Z,1.20
2022-08-29T14:46:23.152Z,0.90
2022-08-29T14:48:50.867Z,1.00
2022-08-29T14:51:18.870Z,2.00
2022-08-29T14:53:54.221Z,1.30
2022-08-29T14:56:46.979Z,1.13
2022-08-29T14:59:16.366Z,1.37
2022-08-29T15:01:44.173Z,1.10
2022-08-29T15:04:12.023Z,1.10
2022-08-29T15:06:41.869Z,0.95
2022-08-29T15:09:10.312Z,1.30
2022-08-29T15:11:39.585Z,1.30
2022-08-29T15:14:08.740Z,1.10
2022-08-29T15:16:36.612Z,1.30
2022-08-29T15:21:52.523Z,1.30
2022-08-29T15:24:20.368Z,1.08
2022-08-29T15:26:49.710Z,1.02
2022-08-29T15:29:17.374Z,1.10
2022-08-29T15:31:46.123Z,1.30
2022-08-29T15:34:14.043Z,1.20
2022-08-29T15:36:41.852Z,1.20
2022-08-29T15:39:10.792Z,0.90
2022-08-29T15:41:40.396Z,0.90
2022-08-29T15:44:10.161Z,1.15
2022-08-29T15:46:38.462Z,1.30
2022-08-29T15:49:18.505Z,1.30
2022-08-29T15:51:47.638Z,1.30
2022-08-29T15:54:16.068Z,1.20
2022-08-29T15:56:46.609Z,1.30
2022-08-29T15:59:18.117Z,1.43
2022-08-29T16:01:48.100Z,1.50
2022-08-29T16:04:17.257Z,1.33
2022-08-29T16:06:45.082Z,1.30
2022-08-29T16:09:15.914Z,1.20
2022-08-29T16:11:44.913Z,1.50
2022-08-29T16:17:04.645Z,1.58
2022-08-29T16:19:32.872Z,1.40
2022-08-29T16:22:05.343Z,1.63
2022-08-29T16:24:36.070Z,1.60
2022-08-29T16:27:03.918Z,1.50
2022-08-29T16:29:33.891Z,1.60
2022-08-29T16:32:03.539Z,1.50
2022-08-29T16:34:31.180Z,1.37
2022-08-29T16:37:00.901Z,1.27
2022-08-29T16:39:30.027Z,1.30
2022-08-29T16:41:58.005Z,1.50
2022-08-29T16:44:27.746Z,1.60
2022-08-29T16:46:56.378Z,1.60
2022-08-29T16:49:26.008Z,1.42
2022-08-29T16:51:53.906Z,1.30
2022-08-29T16:54:21.711Z,1.40
2022-08-29T16:56:50.476Z,1.65
2022-08-29T16:59:18.275Z,1.50
2022-08-29T17:01:48.264Z,1.67
2022-08-29T17:04:19.454Z,1.50
2022-08-29T17:06:49.136Z,1.43
2022-08-29T17:09:16.517Z,1.67
2022-08-29T17:11:44.807Z,1.60
2022-08-29T17:14:11.992Z,1.52
2022-08-29T17:16:40.489Z,1.60
2022-08-29T17:19:08.827Z,1.65
2022-08-29T17:21:37.689Z,1.70
2022-08-29T17:24:08.109Z,1.60
2022-08-29T17:26:40.790Z,1.90
2022-08-29T17:29:10.727Z,1.70
2022-08-29T17:31:39.177Z,1.60
2022-08-29T17:34:08.615Z,1.92
2022-08-29T17:36:37.802Z,1.90
2022-08-29T17:39:07.929Z,1.90
2022-08-29T17:41:37.175Z,1.60
2022-08-29T17:44:05.838Z,1.90
2022-08-29T17:46:34.056Z,1.63
2022-08-29T17:50:03.373Z,1.63
2022-08-29T17:52:31.402Z,2.00
2022-08-29T17:55:07.181Z,1.70
2022-08-29T17:57:35.842Z,1.80
2022-08-29T18:00:04.098Z,1.80
2022-08-29T18:02:34.116Z,1.80
2022-08-29T18:05:02.412Z,2.17
2022-08-29T18:07:31.323Z,1.90
2022-08-29T18:10:03.914Z,1.90
2022-08-29T18:12:32.004Z,2.00
2022-08-29T18:15:00.672Z,1.48
2022-08-29T18:17:29.072Z,1.90
2022-08-29T18:19:59.384Z,2.00
2022-08-29T18:22:27.988Z,1.97
2022-08-29T18:24:56.095Z,2.15
2022-08-29T18:27:26.418Z,1.90
2022-08-29T18:29:55.570Z,2.20
2022-08-29T18:32:26.101Z,2.08
2022-08-29T18:35:00.520Z,2.20
2022-08-29T18:37:29.839Z,2.15
2022-08-29T18:39:57.930Z,2.10
2022-08-29T18:42:39.821Z,2.28
2022-08-29T18:45:10.921Z,2.20
2022-08-29T18:47:38.955Z,2.53
2022-08-29T18:50:25.475Z,2.10
2022-08-29T18:52:54.683Z,2.33
2022-08-29T18:55:24.004Z,2.40
2022-08-29T18:57:54.587Z,2.30
2022-08-29T19:00:22.796Z,2.50
2022-08-29T19:02:50.642Z,1.95
2022-08-29T19:05:18.916Z,2.53
2022-08-29T19:07:46.913Z,2.38
2022-08-29T19:10:15.397Z,3.20
2022-08-29T19:12:44.164Z,2.30
2022-08-29T19:15:18.434Z,2.78
2022-08-29T19:17:46.819Z,2.63
2022-08-29T19:20:34.406Z,2.60
2022-08-29T19:23:03.870Z,2.30
2022-08-29T19:25:33.752Z,2.55
2022-08-29T19:28:03.637Z,2.50
2022-08-29T19:30:33.297Z,2.17
2022-08-29T19:33:03.165Z,2.60
2022-08-29T19:35:31.135Z,3.20
2022-08-29T19:39:00.307Z,2.63
2022-08-29T19:41:28.215Z,2.72
2022-08-29T19:43:56.365Z,2.40
2022-08-29T19:46:31.248Z,2.67
2022-08-29T19:48:59.949Z,2.63
2022-08-29T19:51:29.859Z,2.80
2022-08-29T19:53:57.665Z,2.80
2022-08-29T19:56:25.576Z,2.50
2022-08-29T19:58:54.669Z,3.00
2022-08-29T20:01:22.578Z,2.35
2022-08-29T20:03:52.343Z,2.73
2022-08-29T20:06:20.700Z,3.00
2022-08-29T20:08:49.187Z,2.90
2022-08-29T20:11:20.931Z,3.08
2022-08-29T20:13:51.166Z,2.80
2022-08-29T20:16:22.377Z,3.17
2022-08-29T20:18:52.285Z,2.70
2022-08-29T20:21:20.519Z,2.60
2022-08-29T20:23:50.483Z,2.95
2022-08-29T20:26:20.970Z,2.78
2022-08-29T20:28:49.803Z,2.53
2022-08-29T20:31:17.577Z,3.33
2022-08-29T20:33:47.380Z,2.70
2022-08-29T20:36:39.093Z,3.20
2022-08-29T20:39:08.524Z,2.90
2022-08-29T20:41:37.268Z,2.83
2022-08-29T20:44:07.737Z,2.80
2022-08-29T20:46:39.619Z,3.05
2022-08-29T20:49:07.803Z,3.53
2022-08-29T20:51:37.691Z,3.40
2022-08-29T20:54:06.314Z,3.05
2022-08-29T20:56:34.101Z,3.10
2022-08-29T20:59:02.708Z,3.20
2022-08-29T21:01:33.122Z,3.00
2022-08-29T21:04:20.805Z,2.92
2022-08-29T21:06:50.907Z,2.80
2022-08-29T21:09:19.599Z,2.78
2022-08-29T21:11:47.332Z,2.80
2022-08-29T21:14:15.067Z,3.10
2022-08-29T21:16:44.638Z,2.90
2022-08-29T21:19:12.861Z,2.87
2022-08-29T21:21:42.157Z,2.43
2022-08-29T21:24:11.495Z,2.93
2022-08-29T21:26:40.303Z,2.38
2022-08-29T21:29:09.314Z,2.42
2022-08-29T21:31:38.268Z,2.10
2022-08-29T21:34:07.247Z,2.30
2022-08-29T21:36:36.755Z,2.33
2022-08-29T21:39:06.745Z,2.20
2022-08-29T21:41:39.182Z,2.00
2022-08-29T21:44:07.377Z,2.25
2022-08-29T21:46:37.289Z,1.90
2022-08-29T21:49:07.060Z,2.08
2022-08-29T21:51:36.629Z,1.88
2022-08-29T21:54:07.479Z,1.73
2022-08-29T21:56:39.664Z,1.60
2022-08-29T21:59:07.983Z,1.70
2022-08-29T22:01:39.026Z,1.70
2022-08-29T22:04:10.854Z,1.75
2022-08-29T22:06:41.269Z,2.47
2022-08-29T22:09:10.539Z,1.70
2022-08-29T22:11:39.931Z,1.80
2022-08-29T22:14:09.830Z,1.63
2022-08-29T22:16:37.383Z,2.00
2022-08-29T22:19:09.696Z,1.92
2022-08-29T22:21:39.458Z,1.60
2022-08-29T22:24:07.835Z,2.05
2022-08-29T22:26:36.992Z,1.95
2022-08-29T22:29:06.979Z,1.73
2022-08-29T22:31:35.265Z,1.50
2022-08-29T22:34:05.400Z,1.88
2022-08-29T22:36:34.275Z,1.98
2022-08-29T22:39:03.085Z,1.93
2022-08-29T22:41:31.314Z,2.30
2022-08-29T22:46:52.470Z,2.00
2022-08-29T22:49:20.332Z,1.77
2022-08-29T22:51:48.930Z,1.92
2022-08-29T22:54:34.270Z,1.80
2022-08-29T22:57:04.127Z,1.90
2022-08-29T22:59:33.436Z,1.80
2022-08-29T23:02:03.381Z,1.80
2022-08-29T23:04:31.542Z,1.85
2022-08-29T23:07:00.124Z,1.90
2022-08-29T23:09:33.515Z,1.90
2022-08-29T23:12:04.887Z,2.30
2022-08-29T23:14:33.067Z,2.00
2022-08-29T23:17:02.497Z,2.00
2022-08-29T23:19:31.289Z,2.20
2022-08-29T23:21:59.418Z,2.33
2022-08-29T23:24:30.152Z,1.95
2022-08-29T23:26:58.041Z,2.17
2022-08-29T23:29:26.018Z,2.00
2022-08-29T23:31:53.866Z,2.15
2022-08-29T23:34:24.252Z,2.00
2022-08-29T23:36:51.972Z,2.30
2022-08-29T23:39:20.021Z,2.45
2022-08-29T23:41:47.849Z,2.00
2022-08-29T23:44:16.643Z,2.28
2022-08-29T23:46:45.740Z,2.50
2022-08-29T23:49:13.657Z,2.50
2022-08-29T23:51:43.229Z,2.60
2022-08-29T23:54:11.067Z,3.05
2022-08-29T23:56:38.898Z,2.45
2022-08-29T23:59:06.892Z,2.40
